createdAt,value
2023-04-27T00:01:41.430Z,4.13
2023-04-27T00:04:08.413Z,3.50
2023-04-27T00:06:35.370Z,4.43
2023-04-27T00:09:02.281Z,3.50
2023-04-27T00:11:29.378Z,5.40
2023-04-27T00:13:56.772Z,4.25
2023-04-27T00:16:23.714Z,3.58
2023-04-27T00:18:50.944Z,4.13
2023-04-27T00:21:18.114Z,4.78
2023-04-27T00:23:45.188Z,4.03
2023-04-27T00:26:12.067Z,4.72
2023-04-27T00:28:38.923Z,4.70
2023-04-27T00:31:05.973Z,3.03
2023-04-27T00:33:32.780Z,4.18
2023-04-27T00:36:01.596Z,4.55
2023-04-27T00:38:29.641Z,3.90
2023-04-27T00:41:07.573Z,5.30
2023-04-27T00:43:45.104Z,4.72
2023-04-27T00:46:16.905Z,5.25
2023-04-27T00:48:44.887Z,4.93
2023-04-27T00:51:12.023Z,5.68
2023-04-27T00:53:39.211Z,3.73
2023-04-27T00:56:07.084Z,4.82
2023-04-27T00:58:34.073Z,6.87
2023-04-27T01:01:01.239Z,5.28
2023-04-27T01:03:28.394Z,5.07
2023-04-27T01:05:56.855Z,5.47
2023-04-27T01:08:24.665Z,4.68
2023-04-27T01:10:51.944Z,4.75
2023-04-27T01:13:20.077Z,4.78
2023-04-27T01:15:46.916Z,5.23
2023-04-27T01:18:13.906Z,5.15
2023-04-27T01:20:42.287Z,4.88
2023-04-27T01:23:09.316Z,6.53
2023-04-27T01:25:36.227Z,4.77
2023-04-27T01:28:03.058Z,5.60
2023-04-27T01:30:30.292Z,6.88
2023-04-27T01:32:57.362Z,7.88
2023-04-27T01:35:25.709Z,6.20
2023-04-27T01:37:54.520Z,5.10
2023-04-27T01:40:21.453Z,6.93
2023-04-27T01:42:48.309Z,5.63
2023-04-27T01:45:15.155Z,6.90
2023-04-27T01:47:42.121Z,6.22
2023-04-27T01:50:09.377Z,7.00
2023-04-27T01:52:36.295Z,6.50
2023-04-27T01:55:03.276Z,7.10
2023-04-27T01:57:30.136Z,6.63
2023-04-27T01:59:57.040Z,5.88
2023-04-27T02:02:24.114Z,5.87
2023-04-27T02:04:51.558Z,6.30
2023-04-27T02:07:18.548Z,6.32
2023-04-27T02:09:45.380Z,8.38
2023-04-27T02:12:12.201Z,7.63
2023-04-27T02:14:39.040Z,6.80
2023-04-27T02:17:06.289Z,7.22
2023-04-27T02:19:33.175Z,7.88
2023-04-27T02:21:59.972Z,7.65
2023-04-27T02:24:26.802Z,7.95
2023-04-27T02:26:53.849Z,7.10
2023-04-27T02:29:20.692Z,5.20
2023-04-27T02:31:48.067Z,7.45
2023-04-27T02:34:14.952Z,5.68
2023-04-27T02:36:41.803Z,7.63
2023-04-27T02:39:09.183Z,7.47
2023-04-27T02:41:36.029Z,7.47
2023-04-27T02:44:02.909Z,8.27
2023-04-27T02:46:29.837Z,8.27
2023-04-27T02:48:56.890Z,6.45
2023-04-27T02:51:23.935Z,8.43
2023-04-27T02:53:52.653Z,8.45
2023-04-27T02:56:19.706Z,7.27
2023-04-27T02:58:47.952Z,6.85
2023-04-27T03:01:18.090Z,9.00
2023-04-27T03:03:48.182Z,7.47
2023-04-27T03:06:15.274Z,8.98
2023-04-27T03:08:42.298Z,8.05
2023-04-27T03:11:12.917Z,8.70
2023-04-27T03:13:42.685Z,8.10
2023-04-27T03:16:13.802Z,9.05
2023-04-27T03:18:41.029Z,7.50
2023-04-27T03:21:09.448Z,9.65
2023-04-27T03:23:37.158Z,8.52
2023-04-27T03:26:11.924Z,14.35
2023-04-27T03:28:39.230Z,9.90
2023-04-27T03:31:07.278Z,10.65
2023-04-27T03:33:34.348Z,8.03
2023-04-27T03:36:01.654Z,10.52
2023-04-27T03:38:28.778Z,9.38
2023-04-27T03:40:55.640Z,7.50
2023-04-27T03:43:23.542Z,7.97
2023-04-27T03:45:50.727Z,7.78
2023-04-27T03:48:18.082Z,7.72
2023-04-27T03:50:45.288Z,9.47
2023-04-27T03:53:13.081Z,7.63
2023-04-27T03:55:44.263Z,8.75
2023-04-27T03:58:11.788Z,9.88
2023-04-27T04:00:39.360Z,7.10
2023-04-27T04:03:07.862Z,9.00
2023-04-27T04:05:35.508Z,8.30
2023-04-27T04:08:02.414Z,8.95
2023-04-27T04:10:29.582Z,10.68
2023-04-27T04:12:56.394Z,8.20
2023-04-27T04:15:23.236Z,8.52
2023-04-27T04:17:50.171Z,6.20
2023-04-27T04:20:17.680Z,8.10
2023-04-27T04:22:44.584Z,6.72
2023-04-27T04:25:11.684Z,8.02
2023-04-27T04:27:38.771Z,7.78
2023-04-27T04:30:07.202Z,10.75
2023-04-27T04:32:37.778Z,8.85
2023-04-27T04:35:07.763Z,7.25
2023-04-27T04:37:35.651Z,7.87
2023-04-27T04:40:10.640Z,8.85
2023-04-27T04:42:38.123Z,7.15
2023-04-27T04:45:05.983Z,7.00
2023-04-27T04:47:34.090Z,8.98
2023-04-27T04:50:01.304Z,7.13
2023-04-27T04:52:28.262Z,10.05
2023-04-27T04:54:55.125Z,9.98
2023-04-27T04:57:22.254Z,7.30
2023-04-27T04:59:49.133Z,9.75
2023-04-27T05:02:16.145Z,6.93
2023-04-27T05:04:43.061Z,5.70
2023-04-27T05:07:13.385Z,8.38
2023-04-27T05:09:41.824Z,5.63
2023-04-27T05:12:08.663Z,8.00
2023-04-27T05:14:35.818Z,6.00
2023-04-27T05:17:02.941Z,6.82
2023-04-27T05:19:31.285Z,4.90
2023-04-27T05:21:59.255Z,9.25
2023-04-27T05:24:26.504Z,6.23
2023-04-27T05:26:53.980Z,4.78
2023-04-27T05:29:21.832Z,5.03
2023-04-27T05:31:49.023Z,6.10
2023-04-27T05:34:16.147Z,6.30
2023-04-27T05:36:43.345Z,6.15
2023-04-27T05:39:10.442Z,5.43
2023-04-27T05:41:37.378Z,4.88
2023-04-27T05:44:04.319Z,5.70
2023-04-27T05:46:31.373Z,6.82
2023-04-27T05:48:58.544Z,7.47
2023-04-27T05:51:25.597Z,5.20
2023-04-27T05:53:55.322Z,4.35
2023-04-27T05:56:22.912Z,5.38
2023-04-27T05:58:49.743Z,4.82
2023-04-27T06:01:16.807Z,5.60
2023-04-27T06:03:43.996Z,5.30
2023-04-27T06:06:11.232Z,5.35
2023-04-27T06:08:39.501Z,6.10
2023-04-27T06:11:06.827Z,4.57
2023-04-27T06:13:34.091Z,4.70
2023-04-27T06:16:01.459Z,4.55
2023-04-27T06:18:28.458Z,3.50
2023-04-27T06:21:01.021Z,2.40
2023-04-27T06:23:28.332Z,2.47
2023-04-27T06:25:55.686Z,2.40
2023-04-27T06:28:22.668Z,3.30
2023-04-27T06:30:49.677Z,1.98
2023-04-27T06:33:16.610Z,3.20
2023-04-27T06:35:47.026Z,2.45
2023-04-27T06:38:14.352Z,2.50
2023-04-27T06:40:41.196Z,2.55
2023-04-27T06:43:08.206Z,1.95
2023-04-27T06:45:35.667Z,1.83
2023-04-27T06:48:02.600Z,3.70
2023-04-27T06:50:30.485Z,4.10
2023-04-27T06:52:57.392Z,2.58
2023-04-27T06:55:24.377Z,2.20
2023-04-27T06:57:51.252Z,3.78
2023-04-27T07:00:18.857Z,3.25
2023-04-27T07:02:45.800Z,4.05
2023-04-27T07:05:12.816Z,2.40
2023-04-27T07:07:39.830Z,3.00
2023-04-27T07:10:07.629Z,2.08
2023-04-27T07:12:34.745Z,2.40
2023-04-27T07:15:03.735Z,1.85
2023-04-27T07:17:30.888Z,2.63
2023-04-27T07:19:57.759Z,1.90
2023-04-27T07:22:24.653Z,2.70
2023-04-27T07:24:51.534Z,3.03
2023-04-27T07:27:18.935Z,4.00
2023-04-27T07:29:45.965Z,3.53
2023-04-27T07:32:13.001Z,1.75
2023-04-27T07:34:51.999Z,3.17
2023-04-27T07:37:20.552Z,1.50
2023-04-27T07:39:50.358Z,2.58
2023-04-27T07:42:17.498Z,3.15
2023-04-27T07:44:44.534Z,2.53
2023-04-27T07:47:11.379Z,4.17
2023-04-27T07:49:38.396Z,1.60
2023-04-27T07:52:05.448Z,1.60
2023-04-27T07:54:32.439Z,2.33
2023-04-27T07:56:59.413Z,1.75
2023-04-27T07:59:29.874Z,2.47
2023-04-27T08:02:04.212Z,11.30
2023-04-27T08:04:38.392Z,1.90
2023-04-27T08:07:06.120Z,4.30
2023-04-27T08:09:33.829Z,2.13
2023-04-27T08:12:02.733Z,3.80
2023-04-27T08:14:29.679Z,3.10
2023-04-27T08:16:56.896Z,2.95
2023-04-27T08:19:23.953Z,2.67
2023-04-27T08:21:50.968Z,3.87
2023-04-27T08:24:18.008Z,3.42
2023-04-27T08:26:44.884Z,1.70
2023-04-27T08:29:23.552Z,3.15
2023-04-27T08:31:56.300Z,1.90
2023-04-27T08:34:24.057Z,2.40
2023-04-27T08:36:52.087Z,3.17
2023-04-27T08:39:19.164Z,2.95
2023-04-27T08:41:46.468Z,2.03
2023-04-27T08:44:13.419Z,4.50
2023-04-27T08:46:41.063Z,2.47
2023-04-27T08:49:08.523Z,1.55
2023-04-27T08:51:35.484Z,4.17
2023-04-27T08:54:02.720Z,3.05
2023-04-27T08:56:30.760Z,4.00
2023-04-27T08:58:58.819Z,2.37
2023-04-27T09:01:27.617Z,2.88
2023-04-27T09:04:02.295Z,2.33
2023-04-27T09:06:34.126Z,2.53
2023-04-27T09:09:04.027Z,0.77
2023-04-27T09:11:36.191Z,5.85
2023-04-27T09:14:15.833Z,8.27
2023-04-27T09:16:43.342Z,3.10
2023-04-27T09:19:10.662Z,0.93
2023-04-27T09:21:37.592Z,3.13
2023-04-27T09:24:14.492Z,4.85
2023-04-27T09:26:44.105Z,3.35
2023-04-27T09:29:11.059Z,2.03
2023-04-27T09:31:38.153Z,0.80
2023-04-27T09:34:05.232Z,1.73
2023-04-27T09:36:32.753Z,1.60
2023-04-27T09:39:04.793Z,2.35
2023-04-27T09:41:32.793Z,1.67
2023-04-27T09:44:00.951Z,2.17
2023-04-27T09:46:29.847Z,2.10
2023-04-27T09:48:57.698Z,1.70
2023-04-27T09:51:24.609Z,1.88
2023-04-27T09:53:57.811Z,0.98
2023-04-27T09:57:00.059Z,1.67
2023-04-27T09:59:55.225Z,1.30
2023-04-27T10:02:25.674Z,1.20
2023-04-27T10:05:14.886Z,1.20
2023-04-27T10:07:41.877Z,1.40
2023-04-27T10:10:18.488Z,2.83
2023-04-27T10:12:56.843Z,2.60
2023-04-27T10:15:28.198Z,1.17
2023-04-27T10:17:59.204Z,0.80
2023-04-27T10:20:31.558Z,1.70
2023-04-27T10:22:59.336Z,1.33
2023-04-27T10:25:37.394Z,1.55
2023-04-27T10:28:04.894Z,1.17
2023-04-27T10:30:39.284Z,0.70
2023-04-27T10:33:10.960Z,1.70
2023-04-27T10:35:40.155Z,1.10
2023-04-27T10:38:17.610Z,1.80
2023-04-27T10:40:46.491Z,1.23
2023-04-27T10:43:15.923Z,1.60
2023-04-27T10:45:44.033Z,1.23
2023-04-27T10:48:16.643Z,2.42
2023-04-27T10:50:49.926Z,2.90
2023-04-27T10:53:17.502Z,2.13
2023-04-27T10:55:44.380Z,2.47
2023-04-27T10:58:11.671Z,2.60
2023-04-27T11:00:44.359Z,2.10
2023-04-27T11:03:22.424Z,1.48
2023-04-27T11:05:58.736Z,1.50
2023-04-27T11:08:26.130Z,1.05
2023-04-27T11:10:53.087Z,1.63
2023-04-27T11:13:24.949Z,2.00
2023-04-27T11:15:56.579Z,2.28
2023-04-27T11:18:29.332Z,1.48
2023-04-27T11:21:08.255Z,2.15
2023-04-27T11:23:38.784Z,1.50
2023-04-27T11:26:22.631Z,1.33
2023-04-27T11:29:10.246Z,3.92
2023-04-27T11:31:47.563Z,1.83
2023-04-27T11:34:22.996Z,1.20
2023-04-27T11:39:36.580Z,1.75
2023-04-27T11:42:35.955Z,2.58
2023-04-27T11:45:07.787Z,1.77
2023-04-27T11:47:38.195Z,2.33
2023-04-27T11:50:08.550Z,1.37
2023-04-27T11:52:37.822Z,1.30
2023-04-27T11:55:05.236Z,1.85
2023-04-27T11:57:34.420Z,1.38
2023-04-27T12:00:09.016Z,1.52
2023-04-27T12:02:36.084Z,1.90
2023-04-27T12:05:04.716Z,2.60
2023-04-27T12:07:31.678Z,3.70
2023-04-27T12:09:59.535Z,2.17
2023-04-27T12:12:27.737Z,2.17
2023-04-27T12:14:54.804Z,1.60
2023-04-27T12:17:21.719Z,2.00
2023-04-27T12:19:48.994Z,1.73
2023-04-27T12:22:16.347Z,3.53
2023-04-27T12:24:43.177Z,1.35
2023-04-27T12:27:10.062Z,1.20
2023-04-27T12:29:37.645Z,1.10
2023-04-27T12:32:04.718Z,1.40
2023-04-27T12:34:31.953Z,1.92
2023-04-27T12:36:58.996Z,2.20
2023-04-27T12:39:26.131Z,1.90
2023-04-27T12:41:53.971Z,4.53
2023-04-27T12:44:21.508Z,1.80
2023-04-27T12:46:49.087Z,3.08
2023-04-27T12:49:16.414Z,2.70
2023-04-27T12:51:43.343Z,2.40
2023-04-27T12:54:12.545Z,2.45
2023-04-27T12:56:39.962Z,1.92
2023-04-27T12:59:06.965Z,2.77
2023-04-27T13:01:34.049Z,2.35
2023-04-27T13:04:03.495Z,3.42
2023-04-27T13:06:31.928Z,2.15
2023-04-27T13:08:59.830Z,2.43
2023-04-27T13:11:26.850Z,1.80
2023-04-27T13:13:55.020Z,2.45
2023-04-27T13:16:25.302Z,2.05
2023-04-27T13:18:53.475Z,1.60
2023-04-27T13:21:20.790Z,1.40
2023-04-27T13:23:48.143Z,2.80
2023-04-27T13:26:16.384Z,3.60
2023-04-27T13:28:43.619Z,3.20
2023-04-27T13:31:10.844Z,1.83
2023-04-27T13:33:44.084Z,2.25
2023-04-27T13:36:12.822Z,2.60
2023-04-27T13:38:40.066Z,1.98
2023-04-27T13:41:08.092Z,2.57
2023-04-27T13:43:35.741Z,5.35
2023-04-27T13:46:03.121Z,2.72
2023-04-27T13:48:30.898Z,3.20
2023-04-27T13:50:58.239Z,2.33
2023-04-27T13:53:25.924Z,4.00
2023-04-27T13:55:57.264Z,2.47
2023-04-27T13:58:26.210Z,2.90
2023-04-27T14:00:53.992Z,2.08
2023-04-27T14:03:21.631Z,2.45
2023-04-27T14:05:51.013Z,3.70
2023-04-27T14:08:18.129Z,1.67
2023-04-27T14:10:45.908Z,3.72
2023-04-27T14:13:13.104Z,1.30
2023-04-27T14:15:40.140Z,3.58
2023-04-27T14:18:09.089Z,3.08
2023-04-27T14:20:37.511Z,5.05
2023-04-27T14:23:05.621Z,5.32
2023-04-27T14:25:35.746Z,2.90
2023-04-27T14:28:04.551Z,3.15
2023-04-27T14:30:33.015Z,5.57
2023-04-27T14:33:00.051Z,5.80
2023-04-27T14:35:28.091Z,2.88
2023-04-27T14:37:57.107Z,3.70
2023-04-27T14:40:24.201Z,6.03
2023-04-27T14:42:51.067Z,3.85
2023-04-27T14:45:18.878Z,5.60
2023-04-27T14:47:46.024Z,6.30
2023-04-27T14:50:13.135Z,5.68
2023-04-27T14:52:40.029Z,9.25
2023-04-27T14:55:07.620Z,3.85
2023-04-27T14:57:34.519Z,6.68
2023-04-27T15:00:01.690Z,4.40
2023-04-27T15:02:29.329Z,3.00
2023-04-27T15:04:57.637Z,3.65
2023-04-27T15:07:24.716Z,3.30
2023-04-27T15:09:55.989Z,2.08
2023-04-27T15:12:22.911Z,2.85
2023-04-27T15:14:51.726Z,2.90
2023-04-27T15:17:18.632Z,2.13
2023-04-27T15:19:45.461Z,2.40
2023-04-27T15:22:14.497Z,3.57
2023-04-27T15:24:41.394Z,2.92
2023-04-27T15:27:09.869Z,3.37
2023-04-27T15:29:37.174Z,2.70
2023-04-27T15:32:04.194Z,3.15
2023-04-27T15:34:31.168Z,2.28
2023-04-27T15:36:58.091Z,5.97
2023-04-27T15:39:25.056Z,4.88
2023-04-27T15:41:51.922Z,4.03
2023-04-27T15:44:18.907Z,3.42
2023-04-27T15:46:45.937Z,1.98
2023-04-27T15:49:13.266Z,2.50
2023-04-27T15:51:40.457Z,3.10
2023-04-27T15:54:07.426Z,2.35
2023-04-27T15:56:34.270Z,3.95
2023-04-27T15:59:01.140Z,2.20
2023-04-27T16:01:28.122Z,2.85
2023-04-27T16:03:55.455Z,5.35
2023-04-27T16:06:22.581Z,3.50
2023-04-27T16:08:49.442Z,4.82
2023-04-27T16:11:16.228Z,4.10
2023-04-27T16:13:43.093Z,5.80
2023-04-27T16:16:09.957Z,6.50
2023-04-27T16:18:38.653Z,7.70
2023-04-27T16:21:06.213Z,6.88
2023-04-27T16:23:33.108Z,4.85
2023-04-27T16:25:59.942Z,10.82
2023-04-27T16:28:26.804Z,4.30
2023-04-27T16:30:53.666Z,3.92
2023-04-27T16:33:21.321Z,7.57
2023-04-27T16:35:48.240Z,3.35
2023-04-27T16:38:15.281Z,6.90
2023-04-27T16:40:42.149Z,4.55
2023-04-27T16:43:09.190Z,5.40
2023-04-27T16:45:36.131Z,2.33
2023-04-27T16:48:03.427Z,2.77
2023-04-27T16:50:31.774Z,2.00
2023-04-27T16:53:09.700Z,2.20
2023-04-27T16:55:36.612Z,3.83
2023-04-27T16:58:03.622Z,2.17
2023-04-27T17:00:30.491Z,2.97
2023-04-27T17:02:57.418Z,2.78
2023-04-27T17:05:24.234Z,3.17
2023-04-27T17:07:51.349Z,2.37
2023-04-27T17:10:18.766Z,3.65
2023-04-27T17:12:45.770Z,3.03
2023-04-27T17:15:12.744Z,3.17
2023-04-27T17:17:39.633Z,7.47
2023-04-27T17:20:07.769Z,3.75
2023-04-27T17:22:34.819Z,4.03
2023-04-27T17:25:01.941Z,3.37
2023-04-27T17:27:28.852Z,2.38
2023-04-27T17:32:24.512Z,3.13
2023-04-27T17:34:52.532Z,3.97
2023-04-27T17:37:19.397Z,2.15
2023-04-27T17:39:46.695Z,4.43
2023-04-27T17:42:13.570Z,3.90
2023-04-27T17:44:42.303Z,2.60
2023-04-27T17:47:09.626Z,3.37
2023-04-27T17:49:36.745Z,2.63
2023-04-27T17:52:04.006Z,3.38
2023-04-27T17:54:31.023Z,3.92
2023-04-27T17:56:57.980Z,3.85
2023-04-27T17:59:24.986Z,4.47
2023-04-27T18:01:52.380Z,2.53
2023-04-27T18:04:19.538Z,2.70
2023-04-27T18:06:46.525Z,4.38
2023-04-27T18:09:13.885Z,2.88
2023-04-27T18:11:41.341Z,4.72
2023-04-27T18:14:08.473Z,4.57
2023-04-27T18:16:35.488Z,4.32
2023-04-27T18:19:02.367Z,4.05
2023-04-27T18:21:30.015Z,6.90
2023-04-27T18:23:57.320Z,6.95
2023-04-27T18:26:24.135Z,2.88
2023-04-27T18:28:50.965Z,4.37
2023-04-27T18:31:18.900Z,3.67
2023-04-27T18:33:46.279Z,7.72
2023-04-27T18:36:13.569Z,5.72
2023-04-27T18:38:40.858Z,3.58
2023-04-27T18:41:08.056Z,5.82
2023-04-27T18:43:36.701Z,5.15
2023-04-27T18:46:04.141Z,5.67
2023-04-27T18:48:32.322Z,5.90
2023-04-27T18:50:59.416Z,7.47
2023-04-27T18:53:27.440Z,5.25
2023-04-27T18:55:54.368Z,6.55
2023-04-27T18:58:21.545Z,5.15
2023-04-27T19:00:48.398Z,4.32
2023-04-27T19:03:15.708Z,5.40
2023-04-27T19:05:43.159Z,4.90
2023-04-27T19:08:10.388Z,5.37
2023-04-27T19:10:37.582Z,5.78
2023-04-27T19:13:04.440Z,3.13
2023-04-27T19:15:31.305Z,5.82
2023-04-27T19:18:06.989Z,4.35
2023-04-27T19:20:37.725Z,4.53
2023-04-27T19:23:05.428Z,5.72
2023-04-27T19:25:32.369Z,6.00
2023-04-27T19:27:59.366Z,5.70
2023-04-27T19:30:26.406Z,3.63
2023-04-27T19:32:53.312Z,6.33
2023-04-27T19:35:23.228Z,3.45
2023-04-27T19:37:50.974Z,4.97
2023-04-27T19:40:18.297Z,6.07
2023-04-27T19:42:45.534Z,4.07
2023-04-27T19:45:12.599Z,8.68
2023-04-27T19:47:39.818Z,6.70
2023-04-27T19:50:07.210Z,4.75
2023-04-27T19:52:34.344Z,4.95
2023-04-27T19:55:01.198Z,5.22
2023-04-27T19:57:28.070Z,6.05
2023-04-27T19:59:54.969Z,4.65
2023-04-27T20:02:21.920Z,4.68
2023-04-27T20:04:49.171Z,4.35
2023-04-27T20:07:16.199Z,4.85
2023-04-27T20:09:44.494Z,4.47
2023-04-27T20:12:19.632Z,5.10
2023-04-27T20:14:51.060Z,5.95
2023-04-27T20:17:17.957Z,4.30
2023-04-27T20:19:46.151Z,5.07
2023-04-27T20:22:13.320Z,5.22
2023-04-27T20:24:40.140Z,5.55
2023-04-27T20:27:07.049Z,5.75
2023-04-27T20:29:34.562Z,4.95
2023-04-27T20:32:01.564Z,4.65
2023-04-27T20:34:28.557Z,4.50
2023-04-27T20:36:57.868Z,5.70
2023-04-27T20:39:24.821Z,7.60
2023-04-27T20:41:51.638Z,6.68
2023-04-27T20:44:18.995Z,6.45
2023-04-27T20:46:45.958Z,4.57
2023-04-27T20:49:15.132Z,4.45
2023-04-27T20:51:43.781Z,4.70
2023-04-27T20:54:11.189Z,3.97
2023-04-27T20:56:38.216Z,4.97
2023-04-27T20:59:06.640Z,4.13
2023-04-27T21:01:34.783Z,5.38
2023-04-27T21:04:02.245Z,3.47
2023-04-27T21:06:29.537Z,4.50
2023-04-27T21:08:57.561Z,3.45
2023-04-27T21:11:24.832Z,5.07
2023-04-27T21:13:52.648Z,3.70
2023-04-27T21:16:19.548Z,4.55
2023-04-27T21:18:46.838Z,4.70
2023-04-27T21:21:13.771Z,3.27
2023-04-27T21:23:40.779Z,3.92
2023-04-27T21:26:09.417Z,4.32
2023-04-27T21:28:37.003Z,2.73
2023-04-27T21:31:03.911Z,3.10
2023-04-27T21:33:32.079Z,6.55
2023-04-27T21:35:59.624Z,7.03
2023-04-27T21:38:26.708Z,4.40
2023-04-27T21:40:53.549Z,5.43
2023-04-27T21:43:20.648Z,4.00
2023-04-27T21:45:47.961Z,4.85
2023-04-27T21:48:14.893Z,4.90
2023-04-27T21:50:41.745Z,4.95
2023-04-27T21:53:09.237Z,4.32
2023-04-27T21:55:36.127Z,5.53
2023-04-27T21:58:03.061Z,4.32
2023-04-27T22:00:29.876Z,4.13
2023-04-27T22:02:56.912Z,6.13
2023-04-27T22:05:24.180Z,4.15
2023-04-27T22:07:51.504Z,4.07
2023-04-27T22:10:18.353Z,4.85
2023-04-27T22:12:46.881Z,4.40
2023-04-27T22:15:13.747Z,4.57
2023-04-27T22:17:40.668Z,5.18
2023-04-27T22:20:12.818Z,7.38
2023-04-27T22:22:40.216Z,5.70
2023-04-27T22:25:12.125Z,5.40
2023-04-27T22:27:44.899Z,7.32
2023-04-27T22:30:13.141Z,7.63
2023-04-27T22:32:39.994Z,6.25
2023-04-27T22:35:18.665Z,7.30
2023-04-27T22:37:52.109Z,6.95
2023-04-27T22:40:19.058Z,8.07
2023-04-27T22:42:46.509Z,5.60
2023-04-27T22:45:13.621Z,5.67
2023-04-27T22:47:41.373Z,4.68
2023-04-27T22:50:08.949Z,4.30
2023-04-27T22:52:37.208Z,5.60
2023-04-27T22:55:04.739Z,6.35
2023-04-27T22:57:31.567Z,5.57
2023-04-27T22:59:58.497Z,5.05
2023-04-27T23:02:25.604Z,6.93
2023-04-27T23:04:52.646Z,5.07
2023-04-27T23:07:19.547Z,4.72
2023-04-27T23:09:48.126Z,5.25
2023-04-27T23:12:15.044Z,4.88
2023-04-27T23:14:42.854Z,6.43
2023-04-27T23:17:10.352Z,6.35
2023-04-27T23:19:37.374Z,4.65
2023-04-27T23:22:04.249Z,6.97
2023-04-27T23:24:31.293Z,5.55
2023-04-27T23:26:58.518Z,7.47
2023-04-27T23:29:25.508Z,4.97
2023-04-27T23:31:52.308Z,6.00
2023-04-27T23:34:19.199Z,5.27
2023-04-27T23:36:46.481Z,7.13
2023-04-27T23:39:13.267Z,5.63
2023-04-27T23:41:40.170Z,7.90
2023-04-27T23:44:07.031Z,5.90
2023-04-27T23:46:34.662Z,6.53
2023-04-27T23:49:01.585Z,7.13
2023-04-27T23:51:28.452Z,7.28
2023-04-27T23:53:55.393Z,5.78
2023-04-27T23:56:23.120Z,5.97
2023-04-27T23:58:50.475Z,5.72
